Time;durP1;ratioP1;P1;durP2;ratioP2;P2;SDS_P1;SDS_P2;PMS_P1;PMS_P2;Temp;Humidity;BMP_temperature;BMP_pressure;BME280_temperature;BME280_humidity;BME280_pressure;Samples;Min_cycle;Max_cycle;Signal;HPM_P1;HPM_P2
2023/01/11 00:01:31;;;;;;;4.85;1.60;;;;;;;;;;5028262;28;20037;-85
2023/01/11 00:03:57;;;;;;;8.77;2.00;;;;;;;;;;5053672;28;20033;-85
2023/01/11 00:06:42;;;;;;;6.28;1.58;;;;;;;;;;5028785;28;20287;-84
2023/01/11 00:09:08;;;;;;;7.80;1.63;;;;;;;;;;4981515;28;20035;-83
2023/01/11 00:11:54;;;;;;;7.13;1.58;;;;;;;;;;4950857;28;20092;-82
2023/01/11 00:14:19;;;;;;;6.18;1.73;;;;;;;;;;4928665;29;20126;-83
2023/01/11 00:16:45;;;;;;;7.50;1.90;;;;;;;;;;4914131;29;20114;-83
2023/01/11 00:19:10;;;;;;;8.00;2.08;;;;;;;;;;4915841;29;20126;-83
2023/01/11 00:21:36;;;;;;;5.78;1.58;;;;;;;;;;4913524;29;20451;-84
2023/01/11 00:24:01;;;;;;;6.00;2.08;;;;;;;;;;4911795;29;20046;-83
2023/01/11 00:26:26;;;;;;;3.30;1.30;;;;;;;;;;4915175;29;20516;-83
2023/01/11 00:28:52;;;;;;;6.00;1.88;;;;;;;;;;4912928;29;20066;-82
2023/01/11 00:31:17;;;;;;;5.53;1.65;;;;;;;;;;4913520;29;20054;-82
2023/01/11 00:33:43;;;;;;;7.13;1.83;;;;;;;;;;4928596;29;20072;-82
2023/01/11 00:36:08;;;;;;;3.38;1.52;;;;;;;;;;4929628;29;20039;-83
2023/01/11 00:38:45;;;;;;;5.25;1.23;;;;;;;;;;4896510;29;20042;-83
2023/01/11 00:49:23;;;;;;;5.20;1.48;;;;;;;;;;4992859;28;20037;-83
2023/01/11 00:51:49;;;;;;;4.60;1.52;;;;;;;;;;4998911;28;20409;-83
2023/01/11 00:54:15;;;;;;;3.95;1.48;;;;;;;;;;5048202;28;20068;-82
2023/01/11 00:56:40;;;;;;;7.68;1.35;;;;;;;;;;5031659;28;20377;-82
2023/01/11 00:59:06;;;;;;;5.80;1.42;;;;;;;;;;5015511;28;20040;-83
2023/01/11 01:01:31;;;;;;;6.90;1.55;;;;;;;;;;5029402;28;20036;-83
2023/01/11 01:03:59;;;;;;;5.32;1.45;;;;;;;;;;5017527;28;20029;-82
2023/01/11 01:06:24;;;;;;;;;;;;;;;;;;5055099;28;20071;-83
2023/01/11 01:08:50;;;;;;;6.37;1.60;;;;;;;;;;5010975;28;20444;-83
2023/01/11 01:11:15;;;;;;;5.10;1.48;;;;;;;;;;5048951;28;20271;-83
2023/01/11 01:16:25;;;;;;;5.93;1.70;;;;;;;;;;5029471;28;20087;-84
2023/01/11 01:18:52;;;;;;;5.18;1.25;;;;;;;;;;5012758;28;20029;-83
2023/01/11 01:21:18;;;;;;;7.28;2.33;;;;;;;;;;5008347;28;20120;-84
2023/01/11 01:23:43;;;;;;;6.30;1.40;;;;;;;;;;5050795;28;20133;-83
2023/01/11 01:26:09;;;;;;;4.47;1.40;;;;;;;;;;5014065;28;20494;-83
2023/01/11 01:28:34;;;;;;;2.88;1.05;;;;;;;;;;5051214;28;20055;-83
2023/01/11 01:31:00;;;;;;;4.10;1.52;;;;;;;;;;5023576;28;20037;-83
2023/01/11 01:33:25;;;;;;;4.72;1.48;;;;;;;;;;5020450;28;20098;-83
2023/01/11 01:35:50;;;;;;;3.58;1.25;;;;;;;;;;5013885;28;20163;-84
2023/01/11 01:38:16;;;;;;;2.75;0.98;;;;;;;;;;5028453;28;20024;-83
2023/01/11 01:40:43;;;;;;;5.97;1.70;;;;;;;;;;5027255;28;20029;-83
2023/01/11 01:43:14;;;;;;;4.95;1.15;;;;;;;;;;5021324;28;20090;-84
2023/01/11 01:45:40;;;;;;;5.43;1.35;;;;;;;;;;5028478;28;20032;-84
2023/01/11 01:48:08;;;;;;;7.45;1.60;;;;;;;;;;5029450;28;20029;-83
2023/01/11 01:51:06;;;;;;;;;;;;;;;;;;5034901;28;20041;-83
2023/01/11 01:53:41;;;;;;;2.85;1.13;;;;;;;;;;4989663;28;20022;-83
2023/01/11 01:56:13;;;;;;;6.75;1.50;;;;;;;;;;5002773;28;20046;-83
2023/01/11 01:58:44;;;;;;;5.65;1.30;;;;;;;;;;5033492;28;20568;-83
2023/01/11 02:03:56;;;;;;;4.10;1.17;;;;;;;;;;5054628;28;20056;-83
2023/01/11 02:06:22;;;;;;;5.55;1.73;;;;;;;;;;5020672;28;20037;-83
2023/01/11 02:08:54;;;;;;;3.22;0.93;;;;;;;;;;5029536;28;20067;-82
2023/01/11 02:11:28;;;;;;;4.65;1.48;;;;;;;;;;5049562;28;20490;-83
2023/01/11 02:14:02;;;;;;;5.07;1.25;;;;;;;;;;5010068;28;20029;-83
2023/01/11 02:16:30;;;;;;;3.75;0.80;;;;;;;;;;5018914;28;20036;-84
2023/01/11 02:18:56;;;;;;;4.65;1.20;;;;;;;;;;5017850;28;20154;-84
2023/01/11 02:21:26;;;;;;;3.95;1.00;;;;;;;;;;5007271;28;20432;-84
2023/01/11 02:24:03;;;;;;;5.15;1.60;;;;;;;;;;5060544;28;20079;-83
2023/01/11 02:26:50;;;;;;;3.85;1.13;;;;;;;;;;5044968;28;20032;-83
2023/01/11 02:29:28;;;;;;;4.10;1.52;;;;;;;;;;5017583;28;20514;-83
2023/01/11 02:32:04;;;;;;;6.30;1.27;;;;;;;;;;5009699;28;20045;-83
2023/01/11 02:34:44;;;;;;;6.68;1.25;;;;;;;;;;5040601;28;20079;-83
2023/01/11 02:37:16;;;;;;;4.43;1.02;;;;;;;;;;5033923;28;20133;-83
2023/01/11 02:40:27;;;;;;;4.35;1.15;;;;;;;;;;5001521;28;20083;-83
2023/01/11 02:46:05;;;;;;;3.67;1.10;;;;;;;;;;5049926;28;20041;-83
2023/01/11 02:48:34;;;;;;;2.72;0.80;;;;;;;;;;5018761;28;20029;-83
2023/01/11 02:51:12;;;;;;;4.10;1.08;;;;;;;;;;5019747;28;20420;-83
2023/01/11 02:53:42;;;;;;;4.50;1.30;;;;;;;;;;5017885;28;20179;-83
2023/01/11 02:56:11;;;;;;;2.95;0.90;;;;;;;;;;5027683;28;20033;-82
2023/01/11 02:58:38;;;;;;;4.95;1.35;;;;;;;;;;5033773;28;20041;-82
2023/01/11 03:01:04;;;;;;;5.25;0.80;;;;;;;;;;5028753;28;20510;-82
2023/01/11 03:03:30;;;;;;;3.20;1.13;;;;;;;;;;5025186;28;20030;-84
2023/01/11 03:06:10;;;;;;;4.28;0.90;;;;;;;;;;5010877;28;20044;-82
2023/01/11 03:08:51;;;;;;;5.95;1.20;;;;;;;;;;5016392;28;20040;-83
2023/01/11 03:14:16;;;;;;;3.85;0.90;;;;;;;;;;5032565;28;20586;-83
2023/01/11 03:16:57;;;;;;;3.92;1.30;;;;;;;;;;5060318;28;20510;-83
2023/01/11 03:19:34;;;;;;;2.92;1.08;;;;;;;;;;5061041;28;20124;-84
2023/01/11 03:22:17;;;;;;;4.03;1.15;;;;;;;;;;5019281;28;20042;-85
2023/01/11 03:24:47;;;;;;;2.95;1.00;;;;;;;;;;5046144;28;20053;-84
2023/01/11 03:27:42;;;;;;;3.42;1.55;;;;;;;;;;5030360;28;20037;-83
2023/01/11 03:30:14;;;;;;;3.67;1.08;;;;;;;;;;5029774;28;20575;-83
2023/01/11 03:32:52;;;;;;;3.72;0.88;;;;;;;;;;5048390;28;20131;-83
2023/01/11 03:35:25;;;;;;;3.35;1.00;;;;;;;;;;5019675;28;20115;-83
2023/01/11 03:37:56;;;;;;;4.78;1.00;;;;;;;;;;5014487;28;20377;-82
2023/01/11 03:40:45;;;;;;;5.97;1.38;;;;;;;;;;5022568;28;20500;-84
2023/01/11 03:43:12;;;;;;;3.95;1.13;;;;;;;;;;5060043;28;20087;-84
2023/01/11 03:45:55;;;;;;;4.40;1.23;;;;;;;;;;5015877;28;20107;-83
2023/01/11 03:48:31;;;;;;;3.33;0.90;;;;;;;;;;5003674;28;20492;-83
2023/01/11 03:50:58;;;;;;;2.80;1.02;;;;;;;;;;5017345;28;20033;-83
2023/01/11 03:53:24;;;;;;;4.30;1.20;;;;;;;;;;5020211;28;20033;-83
2023/01/11 03:55:54;;;;;;;4.20;0.90;;;;;;;;;;5035048;28;20102;-83
2023/01/11 03:58:20;;;;;;;4.50;1.10;;;;;;;;;;5059158;28;20029;-83
2023/01/11 04:00:46;;;;;;;4.75;1.10;;;;;;;;;;5030822;28;20556;-82
2023/01/11 04:03:13;;;;;;;2.75;1.08;;;;;;;;;;5025510;28;20518;-82
2023/01/11 04:05:42;;;;;;;2.35;0.88;;;;;;;;;;5011238;28;20032;-83
2023/01/11 04:08:09;;;;;;;2.80;0.82;;;;;;;;;;5032810;28;20033;-83
2023/01/11 04:10:35;;;;;;;2.95;0.90;;;;;;;;;;5026101;28;20039;-83
2023/01/11 04:13:00;;;;;;;4.45;1.10;;;;;;;;;;5008628;28;20513;-82
2023/01/11 04:15:29;;;;;;;3.78;0.85;;;;;;;;;;5039718;28;20060;-83
2023/01/11 04:17:54;;;;;;;2.20;0.90;;;;;;;;;;4990987;28;20067;-83
2023/01/11 04:20:20;;;;;;;4.55;1.13;;;;;;;;;;5010501;28;20512;-84
2023/01/11 04:22:45;;;;;;;4.15;0.90;;;;;;;;;;4989472;28;20512;-84
2023/01/11 04:25:10;;;;;;;3.58;1.00;;;;;;;;;;5026328;28;20053;-83
2023/01/11 04:27:36;;;;;;;5.65;1.15;;;;;;;;;;4991942;28;20040;-84
2023/01/11 04:30:02;;;;;;;3.45;1.08;;;;;;;;;;4999965;28;20087;-83
2023/01/11 04:32:27;;;;;;;2.28;0.82;;;;;;;;;;5005538;28;20083;-83
2023/01/11 04:34:52;;;;;;;2.85;0.90;;;;;;;;;;5004457;28;20034;-84
2023/01/11 04:37:18;;;;;;;3.22;1.02;;;;;;;;;;4998990;28;20590;-85
2023/01/11 04:39:43;;;;;;;1.73;0.77;;;;;;;;;;5005813;28;20057;-83
2023/01/11 04:42:19;;;;;;;2.88;0.90;;;;;;;;;;5018352;28;20504;-83
2023/01/11 04:44:48;;;;;;;4.95;1.30;;;;;;;;;;4994248;28;20435;-83
2023/01/11 04:47:15;;;;;;;3.88;0.88;;;;;;;;;;4994946;28;20037;-89
2023/01/11 04:49:41;;;;;;;2.28;1.00;;;;;;;;;;4979535;28;20038;-89
2023/01/11 04:52:07;;;;;;;2.50;0.90;;;;;;;;;;4993923;28;20477;-89
2023/01/11 04:54:32;;;;;;;3.40;0.70;;;;;;;;;;4979627;28;20038;-89
2023/01/11 04:57:03;;;;;;;3.50;0.93;;;;;;;;;;4995501;28;20041;-89
2023/01/11 04:59:28;;;;;;;2.05;0.80;;;;;;;;;;5010888;28;20037;-87
2023/01/11 05:01:59;;;;;;;2.45;0.90;;;;;;;;;;5016487;28;20044;-86
2023/01/11 05:04:24;;;;;;;2.63;0.80;;;;;;;;;;5007199;28;20099;-83
2023/01/11 05:06:50;;;;;;;3.38;0.77;;;;;;;;;;5009298;28;20059;-84
2023/01/11 05:09:17;;;;;;;2.92;0.93;;;;;;;;;;4993470;28;20106;-86
2023/01/11 05:11:42;;;;;;;2.30;0.80;;;;;;;;;;5005661;28;20050;-86
2023/01/11 05:14:08;;;;;;;5.45;1.10;;;;;;;;;;5011008;28;20037;-88
2023/01/11 05:16:34;;;;;;;2.80;0.70;;;;;;;;;;4991033;28;20364;-88
2023/01/11 05:19:03;;;;;;;2.72;0.80;;;;;;;;;;5010376;28;20037;-87
2023/01/11 05:21:31;;;;;;;2.03;0.85;;;;;;;;;;4987972;28;20049;-87
2023/01/11 05:23:58;;;;;;;4.20;1.00;;;;;;;;;;5003362;28;20049;-87
2023/01/11 05:26:26;;;;;;;3.47;1.30;;;;;;;;;;5007211;28;20392;-87
2023/01/11 05:28:53;;;;;;;5.18;1.27;;;;;;;;;;5009122;28;20365;-87
2023/01/11 05:31:19;;;;;;;5.13;1.07;;;;;;;;;;4991854;28;20518;-89
2023/01/11 05:33:44;;;;;;;4.53;0.90;;;;;;;;;;4997406;28;20359;-88
2023/01/11 05:36:12;;;;;;;3.47;1.10;;;;;;;;;;5014251;28;20072;-86
2023/01/11 05:38:38;;;;;;;4.90;1.00;;;;;;;;;;5005693;28;20025;-79
2023/01/11 05:41:06;;;;;;;2.92;0.80;;;;;;;;;;5020048;28;20060;-79
2023/01/11 05:43:32;;;;;;;2.55;0.88;;;;;;;;;;4998116;28;20647;-79
2023/01/11 05:45:57;;;;;;;1.95;0.98;;;;;;;;;;5013648;28;20056;-79
2023/01/11 05:48:24;;;;;;;3.45;1.02;;;;;;;;;;4992329;28;20501;-79
2023/01/11 05:50:53;;;;;;;2.40;0.80;;;;;;;;;;4991259;28;20038;-80
2023/01/11 05:53:20;;;;;;;3.17;1.00;;;;;;;;;;4994340;28;20033;-79
2023/01/11 05:55:56;;;;;;;4.00;0.82;;;;;;;;;;5014058;28;20037;-79
2023/01/11 05:58:24;;;;;;;4.45;1.25;;;;;;;;;;4991597;28;20534;-78
2023/01/11 06:00:51;;;;;;;4.07;0.90;;;;;;;;;;5038678;28;20038;-85
2023/01/11 06:03:17;;;;;;;2.80;0.88;;;;;;;;;;5020223;28;20056;-86
2023/01/11 06:05:44;;;;;;;4.40;1.17;;;;;;;;;;5025210;28;20052;-86
2023/01/11 06:08:09;;;;;;;2.10;0.80;;;;;;;;;;5000300;28;20038;-86
2023/01/11 06:10:35;;;;;;;3.25;1.00;;;;;;;;;;4986708;28;20148;-85
2023/01/11 06:15:44;;;;;;;5.22;1.05;;;;;;;;;;5012065;28;20165;-87
2023/01/11 06:18:10;;;;;;;3.75;1.40;;;;;;;;;;5040336;28;20113;-87
2023/01/11 06:20:35;;;;;;;4.50;1.40;;;;;;;;;;4997945;28;20110;-86
2023/01/11 06:23:01;;;;;;;3.72;1.35;;;;;;;;;;4988245;28;20522;-87
2023/01/11 06:25:27;;;;;;;4.47;1.25;;;;;;;;;;5037417;28;20117;-85
2023/01/11 06:27:53;;;;;;;3.58;0.90;;;;;;;;;;4998302;28;20040;-85
2023/01/11 06:30:19;;;;;;;2.75;0.93;;;;;;;;;;4990534;28;20995;-85
2023/01/11 06:32:44;;;;;;;4.30;1.20;;;;;;;;;;5005481;28;20503;-85
2023/01/11 06:35:10;;;;;;;3.00;1.10;;;;;;;;;;5024051;28;20029;-85
2023/01/11 06:37:35;;;;;;;4.22;1.00;;;;;;;;;;5008867;28;20041;-86
2023/01/11 06:40:01;;;;;;;2.58;0.70;;;;;;;;;;5009137;28;20084;-85
2023/01/11 06:42:26;;;;;;;2.53;0.80;;;;;;;;;;5023952;28;20128;-86
2023/01/11 06:44:51;;;;;;;4.10;0.90;;;;;;;;;;5008591;28;20038;-85
2023/01/11 06:47:17;;;;;;;4.03;1.00;;;;;;;;;;5006258;28;20472;-86
2023/01/11 06:49:42;;;;;;;2.05;0.88;;;;;;;;;;5001865;28;20044;-86
2023/01/11 06:52:08;;;;;;;2.45;0.80;;;;;;;;;;5007297;28;20041;-85
2023/01/11 06:54:33;;;;;;;3.38;0.80;;;;;;;;;;5007032;28;20071;-85
2023/01/11 06:56:58;;;;;;;2.80;0.80;;;;;;;;;;4992783;28;20041;-85
2023/01/11 06:59:24;;;;;;;2.45;0.80;;;;;;;;;;5010770;28;20765;-86
2023/01/11 07:01:52;;;;;;;4.63;0.80;;;;;;;;;;4998970;28;20033;-85
2023/01/11 07:04:18;;;;;;;3.72;1.02;;;;;;;;;;5001890;28;20045;-85
2023/01/11 07:06:44;;;;;;;4.63;0.88;;;;;;;;;;5008784;28;20516;-85
2023/01/11 07:09:09;;;;;;;2.45;0.90;;;;;;;;;;4991619;28;20025;-85
2023/01/11 07:11:37;;;;;;;5.68;1.05;;;;;;;;;;5023592;28;20499;-85
2023/01/11 07:14:04;;;;;;;5.45;1.10;;;;;;;;;;5012634;28;20033;-85
2023/01/11 07:16:29;;;;;;;3.72;1.10;;;;;;;;;;5020946;28;20033;-86
2023/01/11 07:18:55;;;;;;;3.40;0.90;;;;;;;;;;5016770;28;20045;-86
2023/01/11 07:21:20;;;;;;;4.97;1.13;;;;;;;;;;5015855;28;20032;-86
2023/01/11 07:23:47;;;;;;;2.45;0.90;;;;;;;;;;5038538;28;20028;-86
2023/01/11 07:26:15;;;;;;;5.85;1.00;;;;;;;;;;5011586;28;20046;-85
2023/01/11 07:28:41;;;;;;;4.53;0.90;;;;;;;;;;5014598;28;20500;-85
2023/01/11 07:31:06;;;;;;;5.63;1.17;;;;;;;;;;5033497;28;20099;-86
2023/01/11 07:33:32;;;;;;;4.38;0.85;;;;;;;;;;5002208;28;20037;-86
2023/01/11 07:36:04;;;;;;;3.05;1.00;;;;;;;;;;5041439;28;20504;-85
2023/01/11 07:38:29;;;;;;;2.63;0.90;;;;;;;;;;5015533;28;20037;-85
2023/01/11 07:40:55;;;;;;;3.05;0.98;;;;;;;;;;5020525;28;20037;-85
2023/01/11 07:43:22;;;;;;;2.47;0.77;;;;;;;;;;5023397;28;20047;-87
2023/01/11 07:45:49;;;;;;;5.83;1.23;;;;;;;;;;5035560;28;20036;-85
2023/01/11 07:48:36;;;;;;;3.97;0.90;;;;;;;;;;5060474;28;20271;-84
2023/01/11 07:51:01;;;;;;;3.25;1.02;;;;;;;;;;4977816;28;20091;-86
2023/01/11 07:53:47;;;;;;;2.17;0.80;;;;;;;;;;4967817;28;20038;-86
2023/01/11 07:56:12;;;;;;;2.83;0.90;;;;;;;;;;4927043;29;20035;-85
2023/01/11 07:58:38;;;;;;;2.88;1.00;;;;;;;;;;4915079;29;20398;-86
2023/01/11 08:01:04;;;;;;;4.97;0.77;;;;;;;;;;4926793;29;20500;-85
2023/01/11 08:03:29;;;;;;;2.47;0.80;;;;;;;;;;4927504;29;20039;-85
2023/01/11 08:05:55;;;;;;;3.25;1.10;;;;;;;;;;4911052;29;20036;-85
2023/01/11 08:08:20;;;;;;;2.72;1.00;;;;;;;;;;4930405;29;20043;-87
2023/01/11 08:10:46;;;;;;;2.45;0.85;;;;;;;;;;4929947;29;20108;-86
2023/01/11 08:15:57;;;;;;;5.10;1.17;;;;;;;;;;4931300;29;20070;-86
2023/01/11 08:18:23;;;;;;;2.15;0.85;;;;;;;;;;4907365;29;20039;-87
2023/01/11 08:20:51;;;;;;;3.55;0.80;;;;;;;;;;4917026;29;20062;-85
2023/01/11 08:23:17;;;;;;;2.33;1.00;;;;;;;;;;4891346;29;20042;-86
2023/01/11 08:25:42;;;;;;;3.15;1.00;;;;;;;;;;4924666;29;20032;-85
2023/01/11 08:28:07;;;;;;;2.13;0.68;;;;;;;;;;4958458;28;20041;-86
2023/01/11 08:30:34;;;;;;;3.30;0.80;;;;;;;;;;4999430;28;20035;-86
2023/01/11 08:33:00;;;;;;;1.52;0.60;;;;;;;;;;4967082;28;20665;-86
2023/01/11 08:35:25;;;;;;;2.70;1.27;;;;;;;;;;5017732;28;20025;-87
2023/01/11 08:37:51;;;;;;;2.50;0.90;;;;;;;;;;5038889;28;20629;-87
2023/01/11 08:40:16;;;;;;;3.03;1.20;;;;;;;;;;5010095;28;20053;-87
2023/01/11 08:42:42;;;;;;;4.38;1.05;;;;;;;;;;4993528;28;20124;-88
2023/01/11 08:45:07;;;;;;;3.55;0.93;;;;;;;;;;5008255;28;20030;-87
2023/01/11 08:47:33;;;;;;;3.70;0.85;;;;;;;;;;5028354;28;20420;-88
2023/01/11 08:49:58;;;;;;;2.17;0.85;;;;;;;;;;5027477;28;20382;-87
2023/01/11 08:52:23;;;;;;;2.63;0.82;;;;;;;;;;5039033;28;20554;-88
2023/01/11 08:54:49;;;;;;;2.60;0.80;;;;;;;;;;5012248;28;20033;-87
2023/01/11 08:57:14;;;;;;;3.53;1.02;;;;;;;;;;5056162;28;20029;-87
2023/01/11 08:59:42;;;;;;;4.43;1.10;;;;;;;;;;5025761;28;20037;-87
2023/01/11 09:02:08;;;;;;;4.00;1.58;;;;;;;;;;5009905;28;20511;-86
2023/01/11 09:04:34;;;;;;;2.38;0.90;;;;;;;;;;5029234;28;20053;-87
2023/01/11 09:07:00;;;;;;;2.15;0.80;;;;;;;;;;5053991;28;20121;-86
2023/01/11 09:09:29;;;;;;;2.92;1.02;;;;;;;;;;4997631;28;20091;-86
2023/01/11 09:11:55;;;;;;;4.35;1.20;;;;;;;;;;4986119;28;20046;-86
2023/01/11 09:14:23;;;;;;;2.05;0.85;;;;;;;;;;5015386;28;20439;-86
2023/01/11 09:16:49;;;;;;;2.70;0.90;;;;;;;;;;4982318;28;20029;-87
2023/01/11 09:19:14;;;;;;;3.28;1.00;;;;;;;;;;5000305;28;20124;-88
2023/01/11 09:21:40;;;;;;;3.15;1.02;;;;;;;;;;4968204;28;20156;-88
2023/01/11 09:24:05;;;;;;;1.67;0.70;;;;;;;;;;5007842;28;20496;-88
2023/01/11 09:26:31;;;;;;;2.95;0.90;;;;;;;;;;4992838;28;20084;-87
2023/01/11 09:28:56;;;;;;;3.22;0.88;;;;;;;;;;4990931;28;21035;-87
2023/01/11 09:31:24;;;;;;;3.00;1.10;;;;;;;;;;5020869;28;20041;-86
2023/01/11 09:33:56;;;;;;;2.95;1.10;;;;;;;;;;5015163;28;20389;-86
2023/01/11 09:36:26;;;;;;;4.07;0.90;;;;;;;;;;4994605;28;20341;-86
2023/01/11 09:38:55;;;;;;;3.17;1.30;;;;;;;;;;5005930;28;20045;-87
2023/01/11 09:41:33;;;;;;;3.50;1.27;;;;;;;;;;4990164;28;20484;-89
2023/01/11 09:44:15;;;;;;;4.20;1.10;;;;;;;;;;5002132;28;20516;-87
2023/01/11 09:46:45;;;;;;;2.72;1.13;;;;;;;;;;5029063;28;20057;-87
2023/01/11 09:49:18;;;;;;;2.58;1.10;;;;;;;;;;5012537;28;20088;-88
2023/01/11 09:51:45;;;;;;;2.85;1.00;;;;;;;;;;4991323;28;20037;-88
2023/01/11 09:54:17;;;;;;;6.75;1.38;;;;;;;;;;4991092;28;20045;-87
2023/01/11 09:56:52;;;;;;;2.90;1.27;;;;;;;;;;5044078;28;20095;-86
2023/01/11 09:59:26;;;;;;;2.38;1.27;;;;;;;;;;4997070;28;20502;-88
2023/01/11 10:02:10;;;;;;;2.72;1.20;;;;;;;;;;5018036;28;20043;-86
2023/01/11 10:04:37;;;;;;;4.35;1.42;;;;;;;;;;4998802;28;20065;-86
2023/01/11 10:07:37;;;;;;;3.55;1.35;;;;;;;;;;4998284;28;20041;-87
2023/01/11 10:10:15;;;;;;;5.53;1.60;;;;;;;;;;5002926;28;20037;-87
2023/01/11 10:13:03;;;;;;;2.50;1.23;;;;;;;;;;5013119;28;20055;-86
2023/01/11 10:15:34;;;;;;;3.35;1.73;;;;;;;;;;5016085;28;20546;-87
2023/01/11 10:18:06;;;;;;;5.00;1.73;;;;;;;;;;5048379;28;20124;-88
2023/01/11 10:20:40;;;;;;;4.15;1.60;;;;;;;;;;5051593;28;20033;-88
2023/01/11 10:23:30;;;;;;;3.80;1.50;;;;;;;;;;5038019;28;20047;-86
2023/01/11 10:26:00;;;;;;;4.10;1.65;;;;;;;;;;5047091;28;20040;-85
2023/01/11 10:29:08;;;;;;;3.35;1.42;;;;;;;;;;5031108;28;20772;-86
2023/01/11 10:31:57;;;;;;;2.75;1.30;;;;;;;;;;5046751;28;20123;-87
2023/01/11 10:43:15;;;;;;;2.47;1.17;;;;;;;;;;5028111;28;20840;-85
2023/01/11 10:45:48;;;;;;;4.30;1.40;;;;;;;;;;5040225;28;20076;-87
2023/01/11 10:48:28;;;;;;;3.13;1.40;;;;;;;;;;5004943;28;20095;-87
2023/01/11 10:50:59;;;;;;;6.13;1.50;;;;;;;;;;5036712;28;20491;-86
2023/01/11 10:53:56;;;;;;;4.68;1.50;;;;;;;;;;5039715;28;20041;-87
2023/01/11 10:56:40;;;;;;;2.88;1.25;;;;;;;;;;5035342;28;20037;-87
2023/01/11 10:59:24;;;;;;;5.13;1.50;;;;;;;;;;5042257;28;20045;-86
2023/01/11 11:01:59;;;;;;;3.78;1.60;;;;;;;;;;5036053;28;20437;-86
2023/01/11 11:04:52;;;;;;;5.35;1.38;;;;;;;;;;5024143;28;20519;-86
2023/01/11 11:07:31;;;;;;;2.90;1.25;;;;;;;;;;5020894;28;20195;-86
2023/01/11 11:10:11;;;;;;;3.67;1.40;;;;;;;;;;5023637;28;20036;-86
2023/01/11 11:13:00;;;;;;;3.13;1.48;;;;;;;;;;5020483;28;20536;-86
2023/01/11 11:15:40;;;;;;;4.05;1.42;;;;;;;;;;5015058;28;20067;-89
2023/01/11 11:18:05;;;;;;;2.72;1.30;;;;;;;;;;5013409;28;20041;-88
2023/01/11 11:20:32;;;;;;;4.70;1.50;;;;;;;;;;5018846;28;20546;-88
2023/01/11 11:22:58;;;;;;;3.13;1.40;;;;;;;;;;5045284;28;20044;-90
2023/01/11 11:25:36;;;;;;;3.45;1.52;;;;;;;;;;5038172;28;20037;-87
2023/01/11 11:28:05;;;;;;;3.20;1.50;;;;;;;;;;5046464;28;20091;-88
2023/01/11 11:30:37;;;;;;;4.75;1.40;;;;;;;;;;5044173;28;20046;-88
2023/01/11 11:33:06;;;;;;;3.47;1.38;;;;;;;;;;5007408;28;20139;-89
2023/01/11 11:35:39;;;;;;;3.95;1.70;;;;;;;;;;5029224;28;20108;-89
2023/01/11 11:38:05;;;;;;;3.92;1.55;;;;;;;;;;4986421;28;20094;-88
2023/01/11 11:40:34;;;;;;;3.58;1.70;;;;;;;;;;4997522;28;20128;-87
2023/01/11 11:43:32;;;;;;;2.90;1.50;;;;;;;;;;5020381;28;20041;-90
2023/01/11 11:46:13;;;;;;;;;;;;;;;;;;;;;
2023/01/11 11:48:45;;;;;;;3.35;1.60;;;;;;;;;;5032691;28;20037;-90
2023/01/11 11:51:19;;;;;;;3.45;1.70;;;;;;;;;;5003422;28;20037;-91
2023/01/11 11:53:56;;;;;;;4.63;2.10;;;;;;;;;;4993387;28;20495;-88
2023/01/11 11:56:31;;;;;;;;;;;;;;;;;;5041589;28;20491;-87
2023/01/11 11:58:57;;;;;;;4.40;1.92;;;;;;;;;;5030142;28;19967;-88
2023/01/11 12:01:36;;;;;;;3.63;1.58;;;;;;;;;;5038764;28;20075;-89
2023/01/11 12:04:10;;;;;;;5.38;2.05;;;;;;;;;;5047307;28;20477;-88
2023/01/11 12:06:41;;;;;;;2.88;1.60;;;;;;;;;;4999135;28;20062;-88
2023/01/11 12:09:17;;;;;;;3.38;1.83;;;;;;;;;;5016027;28;20067;-88
2023/01/11 12:11:46;;;;;;;5.13;2.00;;;;;;;;;;5030270;28;20100;-88
2023/01/11 12:14:22;;;;;;;5.18;2.00;;;;;;;;;;5020954;28;20051;-88
2023/01/11 12:16:48;;;;;;;4.93;1.95;;;;;;;;;;5012623;28;20048;-88
2023/01/11 12:19:33;;;;;;;4.60;1.88;;;;;;;;;;5016095;28;20056;-88
2023/01/11 12:22:16;;;;;;;4.35;1.77;;;;;;;;;;5044694;28;20431;-88
2023/01/11 12:24:45;;;;;;;2.95;1.48;;;;;;;;;;5033055;28;20040;-88
2023/01/11 12:27:38;;;;;;;3.05;1.65;;;;;;;;;;5017939;28;20893;-88
2023/01/11 12:30:09;;;;;;;3.10;1.55;;;;;;;;;;5060404;28;20072;-89
2023/01/11 12:32:49;;;;;;;3.17;1.55;;;;;;;;;;5042986;28;20514;-90
2023/01/11 12:36:28;;;;;;;;;;;;;;;;;;;;;
2023/01/11 12:39:08;;;;;;;3.40;1.50;;;;;;;;;;4976462;28;20533;-90
2023/01/11 12:41:52;;;;;;;2.97;1.58;;;;;;;;;;4983390;28;20456;-88
2023/01/11 12:44:28;;;;;;;3.28;1.60;;;;;;;;;;4970589;28;20498;-89
2023/01/11 12:47:28;;;;;;;2.78;1.45;;;;;;;;;;4978053;28;21053;-89
2023/01/11 12:50:06;;;;;;;3.33;1.50;;;;;;;;;;4979081;28;20110;-90
2023/01/11 12:53:13;;;;;;;3.67;1.60;;;;;;;;;;4936618;28;20529;-87
2023/01/11 12:55:53;;;;;;;4.07;1.55;;;;;;;;;;4859781;29;20695;-87
2023/01/11 12:58:25;;;;;;;3.13;1.50;;;;;;;;;;4940373;28;20050;-88
2023/01/11 13:01:21;;;;;;;3.30;1.40;;;;;;;;;;4947524;28;20038;-85
2023/01/11 13:04:08;;;;;;;3.03;1.60;;;;;;;;;;4925992;28;20031;-86
2023/01/11 13:07:08;;;;;;;3.53;1.63;;;;;;;;;;4948757;28;20106;-88
2023/01/11 13:09:45;;;;;;;3.78;1.60;;;;;;;;;;4930928;28;20260;-89
2023/01/11 13:12:16;;;;;;;3.00;1.45;;;;;;;;;;5014050;28;20099;-87
2023/01/11 13:14:51;;;;;;;3.47;1.27;;;;;;;;;;5034614;28;20067;-89
2023/01/11 13:17:41;;;;;;;3.78;1.58;;;;;;;;;;5047021;28;20764;-88
2023/01/11 13:20:22;;;;;;;4.45;1.60;;;;;;;;;;5038761;28;20037;-88
2023/01/11 13:23:14;;;;;;;2.75;1.38;;;;;;;;;;5058656;28;20047;-88
2023/01/11 13:25:47;;;;;;;2.63;1.52;;;;;;;;;;5056243;28;20107;-88
2023/01/11 13:28:27;;;;;;;3.47;1.80;;;;;;;;;;5025612;28;20131;-89
2023/01/11 13:30:52;;;;;;;3.10;1.50;;;;;;;;;;5027621;28;20036;-90
2023/01/11 13:33:21;;;;;;;4.18;1.50;;;;;;;;;;5043585;28;20032;-89
2023/01/11 13:35:50;;;;;;;3.05;1.52;;;;;;;;;;5016718;28;20036;-88
2023/01/11 13:38:30;;;;;;;2.55;1.30;;;;;;;;;;5020435;28;20498;-88
2023/01/11 13:41:10;;;;;;;3.58;1.25;;;;;;;;;;5045471;28;20400;-89
2023/01/11 13:43:44;;;;;;;3.03;1.40;;;;;;;;;;5052062;28;20091;-88
2023/01/11 13:46:34;;;;;;;3.10;1.60;;;;;;;;;;5043930;28;20068;-89
2023/01/11 13:49:27;;;;;;;4.55;1.80;;;;;;;;;;5008597;28;20036;-89
2023/01/11 13:52:36;;;;;;;2.83;1.50;;;;;;;;;;5010102;28;20508;-88
2023/01/11 13:55:30;;;;;;;4.10;1.58;;;;;;;;;;4967200;28;20900;-88
2023/01/11 13:58:02;;;;;;;3.05;1.40;;;;;;;;;;5010301;28;20524;-87
2023/01/11 14:00:40;;;;;;;3.08;1.45;;;;;;;;;;4994327;28;20097;-88
2023/01/11 14:03:28;;;;;;;2.90;1.50;;;;;;;;;;5001910;28;20045;-88
2023/01/11 14:06:18;;;;;;;3.25;1.52;;;;;;;;;;5057289;28;20376;-88
2023/01/11 14:08:43;;;;;;;3.63;1.67;;;;;;;;;;5035680;28;20087;-88
2023/01/11 14:11:21;;;;;;;3.25;1.60;;;;;;;;;;5043187;28;20053;-87
2023/01/11 14:14:12;;;;;;;;;;;;;;;;;;5033376;28;20473;-88
2023/01/11 14:17:02;;;;;;;4.10;1.65;;;;;;;;;;5031916;28;20385;-87
2023/01/11 14:19:33;;;;;;;3.65;1.70;;;;;;;;;;5059258;28;20174;-88
2023/01/11 14:22:11;;;;;;;4.35;1.80;;;;;;;;;;5035909;28;20551;-88
2023/01/11 14:24:40;;;;;;;4.28;1.70;;;;;;;;;;5034772;28;20377;-90
2023/01/11 14:27:28;;;;;;;3.53;1.88;;;;;;;;;;5032804;28;20037;-91
2023/01/11 14:30:12;;;;;;;3.60;1.92;;;;;;;;;;5043270;28;20100;-91
2023/01/11 14:33:03;;;;;;;4.85;2.20;;;;;;;;;;5046274;28;20051;-88
2023/01/11 14:35:48;;;;;;;5.03;1.90;;;;;;;;;;5005499;28;20068;-88
2023/01/11 14:38:38;;;;;;;3.50;1.90;;;;;;;;;;5009836;28;20053;-90
2023/01/11 14:41:22;;;;;;;3.17;1.83;;;;;;;;;;5036168;28;20343;-89
2023/01/11 14:44:06;;;;;;;3.70;1.92;;;;;;;;;;5029167;28;20119;-86
2023/01/11 14:47:14;;;;;;;3.85;2.05;;;;;;;;;;5039138;28;20029;-87
2023/01/11 14:50:07;;;;;;;3.78;1.70;;;;;;;;;;5003079;28;20491;-92
2023/01/11 14:52:35;;;;;;;3.85;2.00;;;;;;;;;;4979196;28;20367;-88
2023/01/11 14:55:03;;;;;;;4.15;1.90;;;;;;;;;;4998815;28;20046;-87
2023/01/11 14:57:36;;;;;;;3.50;1.80;;;;;;;;;;4985447;28;20038;-87
2023/01/11 15:00:05;;;;;;;3.35;1.88;;;;;;;;;;4984222;28;20115;-87
2023/01/11 15:02:30;;;;;;;3.83;1.85;;;;;;;;;;4983156;28;20097;-88
2023/01/11 15:04:55;;;;;;;3.85;2.00;;;;;;;;;;4977424;28;20104;-88
2023/01/11 15:07:30;;;;;;;4.43;2.22;;;;;;;;;;4987095;28;20045;-87
2023/01/11 15:09:57;;;;;;;4.13;1.90;;;;;;;;;;4987384;28;20049;-87
2023/01/11 15:12:30;;;;;;;3.67;2.10;;;;;;;;;;4986791;28;20057;-86
2023/01/11 15:15:01;;;;;;;3.80;2.25;;;;;;;;;;4971104;28;20121;-85
2023/01/11 15:20:13;;;;;;;4.47;2.08;;;;;;;;;;4997070;28;20088;-87
2023/01/11 15:22:59;;;;;;;4.63;2.17;;;;;;;;;;4973614;28;20042;-89
2023/01/11 15:25:30;;;;;;;4.28;1.90;;;;;;;;;;4918605;29;20047;-87
2023/01/11 15:27:55;;;;;;;4.68;2.22;;;;;;;;;;4940809;28;20044;-86
2023/01/11 15:30:27;;;;;;;3.33;1.88;;;;;;;;;;4938840;28;20111;-85
2023/01/11 15:32:53;;;;;;;5.30;2.03;;;;;;;;;;4938011;28;20047;-84
2023/01/11 15:35:31;;;;;;;4.35;2.00;;;;;;;;;;4948986;28;20135;-85
2023/01/11 15:38:06;;;;;;;4.28;1.80;;;;;;;;;;4939048;28;20103;-86
2023/01/11 15:40:38;;;;;;;3.60;1.90;;;;;;;;;;4950308;28;20876;-85
2023/01/11 15:43:46;;;;;;;4.80;2.20;;;;;;;;;;4952060;28;20050;-85
2023/01/11 15:48:59;;;;;;;4.32;1.95;;;;;;;;;;4932397;28;20451;-85
2023/01/11 15:51:55;;;;;;;4.88;2.13;;;;;;;;;;4951541;28;20043;-86
2023/01/11 15:54:52;;;;;;;3.72;2.05;;;;;;;;;;4948052;28;20072;-86
2023/01/11 15:57:34;;;;;;;4.47;2.40;;;;;;;;;;4926620;28;20601;-86